Overview Statistics Trail Chart Weather Telemetry Raw packets
 

This is the latest recevied weather packets stored in our database for station/object S57PNX-8. If no packets are shown the sender has not sent any weather packets the latest 10 day(s).

<< 14 15 16 17 18 19 20 >>
Time Temp. Humidity Pressure Rain* Wind** Luminosity Snow
1788378217 21.11° C 56% 1025.5 hPa - - - -
1788377319 21.67° C 55% 1025.4 hPa - - - -
1788376420 21.67° C 55% 1025.3 hPa - - - -
1788375521 22.22° C 54% 1025.2 hPa - - - -
1788374622 22.22° C 53% 1025 hPa - - - -
1788373723 22.78° C 52% 1025 hPa - - - -
1788372824 22.78° C 52% 1024.9 hPa - - - -
1788371925 23.33° C 51% 1024.8 hPa - - - -
1788371026 23.89° C 50% 1024.8 hPa - - - -
1788370127 24.44° C 49% 1024.9 hPa - - - -
1788369228 25° C 46% 1024.7 hPa - - - -
1788368329 26.67° C 44% 1024.7 hPa - - - -
1788367430 28.89° C 40% 1024.8 hPa - - - -
1788366681 26.67° C 45% 1024.8 hPa - - - -
1788365782 25° C 48% 1024.6 hPa - - - -
1788364883 25° C 47% 1024.6 hPa - - - -
1788363984 26.11° C 44% 1024.5 hPa - - - -
1788363085 26.67° C 42% 1024.6 hPa - - - -
1788362186 26.67° C 42% 1024.7 hPa - - - -
1788361537 27.78° C 41% 1024.8 hPa - - - -
1788361286 27.78° C 41% 1024.8 hPa - - - -
1788360387 26.11° C 45% 1024.9 hPa - - - -
1788359488 25.56° C 47% 1025 hPa - - - -
1788358589 25° C 48% 1025 hPa - - - -
1788357690 24.44° C 49% 1025.1 hPa - - - -

* Rain since midnight (hover to see other rain measurements)
** Current wind speed in m/s (hover to see current wind gust speed)